sensor_id;sensor_type;location;lat;lon;timestamp;pressure;altitude;pressure_sealevel;temperature;humidity
43804;BME280;29430;52.924;-2.388;2022-08-30T00:04:56;100235.03;;;15.01;70.27
43804;BME280;29430;52.924;-2.388;2022-08-30T00:09:51;100231.19;;;14.90;70.60
43804;BME280;29430;52.924;-2.388;2022-08-30T00:14:43;100234.88;;;14.84;71.23
43804;BME280;29430;52.924;-2.388;2022-08-30T00:19:34;100238.16;;;14.74;71.27
43804;BME280;29430;52.924;-2.388;2022-08-30T00:24:26;100241.69;;;14.63;72.14
43804;BME280;29430;52.924;-2.388;2022-08-30T00:29:18;100243.50;;;14.50;73.07
43804;BME280;29430;52.924;-2.388;2022-08-30T00:34:09;100248.69;;;14.40;73.58
43804;BME280;29430;52.924;-2.388;2022-08-30T00:39:02;100244.59;;;14.31;74.21
43804;BME280;29430;52.924;-2.388;2022-08-30T00:43:54;100236.97;;;14.21;74.51
43804;BME280;29430;52.924;-2.388;2022-08-30T00:48:47;100250.66;;;14.14;75.11
43804;BME280;29430;52.924;-2.388;2022-08-30T00:53:43;100243.63;;;14.07;75.44
43804;BME280;29430;52.924;-2.388;2022-08-30T00:58:41;100249.16;;;14.00;76.11
43804;BME280;29430;52.924;-2.388;2022-08-30T01:03:36;100245.53;;;13.88;76.36
43804;BME280;29430;52.924;-2.388;2022-08-30T01:08:28;100255.66;;;13.81;77.04
43804;BME280;29430;52.924;-2.388;2022-08-30T01:13:21;100256.34;;;13.76;76.97
43804;BME280;29430;52.924;-2.388;2022-08-30T01:18:14;100262.47;;;13.71;77.69
43804;BME280;29430;52.924;-2.388;2022-08-30T01:23:11;100262.53;;;13.65;77.35
43804;BME280;29430;52.924;-2.388;2022-08-30T01:28:08;100256.31;;;13.57;77.81
43804;BME280;29430;52.924;-2.388;2022-08-30T01:33:02;100252.38;;;13.53;77.96
43804;BME280;29430;52.924;-2.388;2022-08-30T01:37:55;100248.06;;;13.46;78.03
43804;BME280;29430;52.924;-2.388;2022-08-30T01:42:46;100249.78;;;13.40;79.06
43804;BME280;29430;52.924;-2.388;2022-08-30T01:47:39;100255.47;;;13.32;79.11
43804;BME280;29430;52.924;-2.388;2022-08-30T01:52:31;100241.66;;;13.26;79.89
43804;BME280;29430;52.924;-2.388;2022-08-30T01:57:23;100244.47;;;13.20;80.26
43804;BME280;29430;52.924;-2.388;2022-08-30T02:02:20;100236.94;;;13.15;80.46
43804;BME280;29430;52.924;-2.388;2022-08-30T02:07:13;100246.63;;;13.11;80.69
43804;BME280;29430;52.924;-2.388;2022-08-30T02:12:07;100246.06;;;13.02;81.44
43804;BME280;29430;52.924;-2.388;2022-08-30T02:16:59;100248.59;;;12.97;81.31
43804;BME280;29430;52.924;-2.388;2022-08-30T02:21:52;100243.22;;;12.90;81.81
43804;BME280;29430;52.924;-2.388;2022-08-30T02:26:43;100234.25;;;12.83;81.68
43804;BME280;29430;52.924;-2.388;2022-08-30T02:31:35;100244.75;;;12.80;81.98
43804;BME280;29430;52.924;-2.388;2022-08-30T02:36:27;100233.69;;;12.75;81.89
43804;BME280;29430;52.924;-2.388;2022-08-30T02:41:19;100237.69;;;12.72;82.39
43804;BME280;29430;52.924;-2.388;2022-08-30T02:46:11;100236.06;;;12.64;82.78
43804;BME280;29430;52.924;-2.388;2022-08-30T02:51:09;100236.94;;;12.58;82.78
43804;BME280;29430;52.924;-2.388;2022-08-30T02:56:02;100229.19;;;12.55;82.56
43804;BME280;29430;52.924;-2.388;2022-08-30T03:00:54;100230.47;;;12.52;82.49
43804;BME280;29430;52.924;-2.388;2022-08-30T03:05:46;100237.41;;;12.48;82.03
43804;BME280;29430;52.924;-2.388;2022-08-30T03:10:37;100232.63;;;12.44;82.67
43804;BME280;29430;52.924;-2.388;2022-08-30T03:15:29;100233.88;;;12.41;82.90
43804;BME280;29430;52.924;-2.388;2022-08-30T03:20:22;100229.91;;;12.37;82.93
43804;BME280;29430;52.924;-2.388;2022-08-30T03:25:14;100220.75;;;12.31;83.06
43804;BME280;29430;52.924;-2.388;2022-08-30T03:30:08;100220.75;;;12.25;83.02
43804;BME280;29430;52.924;-2.388;2022-08-30T03:35:00;100223.53;;;12.18;82.89
43804;BME280;29430;52.924;-2.388;2022-08-30T03:39:53;100235.03;;;12.13;82.87
43804;BME280;29430;52.924;-2.388;2022-08-30T03:44:45;100237.59;;;12.08;82.74
43804;BME280;29430;52.924;-2.388;2022-08-30T03:49:37;100230.69;;;12.06;82.75
43804;BME280;29430;52.924;-2.388;2022-08-30T03:54:29;100230.50;;;12.00;82.36
43804;BME280;29430;52.924;-2.388;2022-08-30T03:59:21;100230.06;;;11.97;81.47
43804;BME280;29430;52.924;-2.388;2022-08-30T04:04:13;100238.66;;;11.94;81.27
43804;BME280;29430;52.924;-2.388;2022-08-30T04:09:11;100231.97;;;11.90;80.43
43804;BME280;29430;52.924;-2.388;2022-08-30T04:14:03;100230.72;;;11.86;80.25
43804;BME280;29430;52.924;-2.388;2022-08-30T04:18:54;100220.91;;;11.78;80.12
43804;BME280;29430;52.924;-2.388;2022-08-30T04:23:46;100229.69;;;11.73;80.69
43804;BME280;29430;52.924;-2.388;2022-08-30T04:28:38;100236.81;;;11.74;80.51
43804;BME280;29430;52.924;-2.388;2022-08-30T04:33:29;100238.28;;;11.70;80.05
43804;BME280;29430;52.924;-2.388;2022-08-30T04:38:25;100232.44;;;11.60;80.18
43804;BME280;29430;52.924;-2.388;2022-08-30T04:43:20;100241.66;;;11.59;79.86
43804;BME280;29430;52.924;-2.388;2022-08-30T04:48:12;100245.22;;;11.53;80.27
43804;BME280;29430;52.924;-2.388;2022-08-30T04:53:04;100243.56;;;11.45;80.49
43804;BME280;29430;52.924;-2.388;2022-08-30T04:57:55;100247.31;;;11.37;80.85
43804;BME280;29430;52.924;-2.388;2022-08-30T05:02:47;100240.84;;;11.32;81.20
43804;BME280;29430;52.924;-2.388;2022-08-30T05:07:40;100240.22;;;11.29;81.66
43804;BME280;29430;52.924;-2.388;2022-08-30T05:12:32;100250.66;;;11.26;82.02
43804;BME280;29430;52.924;-2.388;2022-08-30T05:17:24;100252.34;;;11.20;82.10
43804;BME280;29430;52.924;-2.388;2022-08-30T05:22:16;100241.03;;;11.17;82.46
43804;BME280;29430;52.924;-2.388;2022-08-30T05:27:07;100242.09;;;11.16;82.05
43804;BME280;29430;52.924;-2.388;2022-08-30T05:31:59;100248.38;;;11.09;82.01
43804;BME280;29430;52.924;-2.388;2022-08-30T05:36:51;100245.22;;;11.13;81.51
43804;BME280;29430;52.924;-2.388;2022-08-30T05:41:43;100243.56;;;11.11;81.49
43804;BME280;29430;52.924;-2.388;2022-08-30T05:46:37;100249.59;;;11.14;81.73
43804;BME280;29430;52.924;-2.388;2022-08-30T05:51:31;100251.06;;;11.16;81.18
43804;BME280;29430;52.924;-2.388;2022-08-30T05:56:31;100249.84;;;11.19;81.30
43804;BME280;29430;52.924;-2.388;2022-08-30T06:01:28;100253.56;;;11.38;82.33
43804;BME280;29430;52.924;-2.388;2022-08-30T06:06:20;100255.19;;;11.99;80.18
43804;BME280;29430;52.924;-2.388;2022-08-30T06:11:14;100259.06;;;12.68;77.27
43804;BME280;29430;52.924;-2.388;2022-08-30T06:16:07;100260.06;;;13.31;74.52
43804;BME280;29430;52.924;-2.388;2022-08-30T06:21:00;100258.63;;;13.97;71.82
43804;BME280;29430;52.924;-2.388;2022-08-30T06:25:52;100257.88;;;14.58;69.40
43804;BME280;29430;52.924;-2.388;2022-08-30T06:30:44;100256.56;;;15.21;67.20
43804;BME280;29430;52.924;-2.388;2022-08-30T06:35:36;100261.38;;;15.85;63.91
43804;BME280;29430;52.924;-2.388;2022-08-30T06:40:42;100261.19;;;16.27;63.07
43804;BME280;29430;52.924;-2.388;2022-08-30T06:45:34;100258.94;;;16.81;61.24
43804;BME280;29430;52.924;-2.388;2022-08-30T06:50:26;100266.09;;;17.45;58.68
43804;BME280;29430;52.924;-2.388;2022-08-30T06:55:18;100254.19;;;17.91;57.01
43804;BME280;29430;52.924;-2.388;2022-08-30T07:00:14;100258.88;;;18.34;56.24
43804;BME280;29430;52.924;-2.388;2022-08-30T07:05:07;100257.56;;;18.86;55.09
43804;BME280;29430;52.924;-2.388;2022-08-30T07:10:04;100250.56;;;19.76;53.31
43804;BME280;29430;52.924;-2.388;2022-08-30T07:14:56;100260.31;;;20.52;52.43
43804;BME280;29430;52.924;-2.388;2022-08-30T07:19:48;100265.44;;;21.48;50.65
43804;BME280;29430;52.924;-2.388;2022-08-30T07:24:40;100270.66;;;21.75;47.27
43804;BME280;29430;52.924;-2.388;2022-08-30T07:29:31;100271.50;;;21.39;47.41
43804;BME280;29430;52.924;-2.388;2022-08-30T07:34:23;100265.72;;;21.15;48.14
43804;BME280;29430;52.924;-2.388;2022-08-30T07:39:18;100268.06;;;20.60;48.59
43804;BME280;29430;52.924;-2.388;2022-08-30T07:44:10;100264.22;;;20.61;48.22
43804;BME280;29430;52.924;-2.388;2022-08-30T07:49:02;100263.09;;;20.57;46.94
43804;BME280;29430;52.924;-2.388;2022-08-30T07:53:55;100264.81;;;20.68;48.07
43804;BME280;29430;52.924;-2.388;2022-08-30T07:58:47;100266.81;;;21.40;46.39
43804;BME280;29430;52.924;-2.388;2022-08-30T08:03:40;100269.28;;;21.77;46.28
43804;BME280;29430;52.924;-2.388;2022-08-30T08:08:33;100259.31;;;21.92;45.33
43804;BME280;29430;52.924;-2.388;2022-08-30T08:13:25;100273.13;;;21.97;44.78
43804;BME280;29430;52.924;-2.388;2022-08-30T08:18:23;100269.75;;;22.10;44.19
43804;BME280;29430;52.924;-2.388;2022-08-30T08:23:15;100280.03;;;21.84;44.97
43804;BME280;29430;52.924;-2.388;2022-08-30T08:28:07;100286.09;;;21.96;44.17
43804;BME280;29430;52.924;-2.388;2022-08-30T08:33:00;100285.53;;;21.99;44.33
43804;BME280;29430;52.924;-2.388;2022-08-30T08:37:52;100287.41;;;22.20;43.11
43804;BME280;29430;52.924;-2.388;2022-08-30T08:43:00;100285.78;;;22.08;42.94
43804;BME280;29430;52.924;-2.388;2022-08-30T08:47:59;100283.84;;;22.14;42.96
43804;BME280;29430;52.924;-2.388;2022-08-30T08:58:41;100275.03;;;22.77;44.37
43804;BME280;29430;52.924;-2.388;2022-08-30T09:03:36;100283.50;;;23.36;41.39
43804;BME280;29430;52.924;-2.388;2022-08-30T09:08:27;100282.22;;;23.82;41.56
43804;BME280;29430;52.924;-2.388;2022-08-30T09:13:19;100284.53;;;24.28;42.75
43804;BME280;29430;52.924;-2.388;2022-08-30T09:18:13;100288.06;;;24.58;39.44
43804;BME280;29430;52.924;-2.388;2022-08-30T09:23:23;100284.22;;;24.54;39.02
43804;BME280;29430;52.924;-2.388;2022-08-30T09:28:23;100282.44;;;24.39;39.58
43804;BME280;29430;52.924;-2.388;2022-08-30T09:33:19;100286.72;;;24.74;37.86
43804;BME280;29430;52.924;-2.388;2022-08-30T09:38:17;100283.13;;;24.74;38.49
43804;BME280;29430;52.924;-2.388;2022-08-30T09:53:32;100282.44;;;24.82;38.60
43804;BME280;29430;52.924;-2.388;2022-08-30T09:58:34;100280.28;;;24.79;37.33
43804;BME280;29430;52.924;-2.388;2022-08-30T10:03:39;100290.03;;;24.76;36.88
43804;BME280;29430;52.924;-2.388;2022-08-30T10:08:57;100292.06;;;24.71;37.36
43804;BME280;29430;52.924;-2.388;2022-08-30T10:24:09;100288.00;;;24.63;36.25
43804;BME280;29430;52.924;-2.388;2022-08-30T10:29:07;100286.81;;;24.45;35.97
43804;BME280;29430;52.924;-2.388;2022-08-30T10:34:09;100281.28;;;23.97;36.59
43804;BME280;29430;52.924;-2.388;2022-08-30T10:39:05;100277.09;;;23.70;36.89
43804;BME280;29430;52.924;-2.388;2022-08-30T10:44:16;100279.13;;;23.59;38.87
43804;BME280;29430;52.924;-2.388;2022-08-30T10:49:14;100283.69;;;23.74;37.64
43804;BME280;29430;52.924;-2.388;2022-08-30T10:54:18;100284.63;;;23.64;38.22
43804;BME280;29430;52.924;-2.388;2022-08-30T10:59:11;100281.47;;;23.47;38.32
43804;BME280;29430;52.924;-2.388;2022-08-30T11:14:29;100282.94;;;22.89;38.38
43804;BME280;29430;52.924;-2.388;2022-08-30T11:19:47;100277.59;;;22.63;39.05
43804;BME280;29430;52.924;-2.388;2022-08-30T11:25:01;100271.84;;;22.44;38.52
43804;BME280;29430;52.924;-2.388;2022-08-30T11:35:37;100282.16;;;22.23;39.19
43804;BME280;29430;52.924;-2.388;2022-08-30T11:41:11;100280.03;;;21.94;39.82
43804;BME280;29430;52.924;-2.388;2022-08-30T11:51:33;100291.31;;;21.98;40.07
43804;BME280;29430;52.924;-2.388;2022-08-30T11:56:48;100279.19;;;21.89;39.43
43804;BME280;29430;52.924;-2.388;2022-08-30T12:01:46;100273.13;;;21.87;39.46
43804;BME280;29430;52.924;-2.388;2022-08-30T12:06:47;100283.03;;;21.98;40.23
43804;BME280;29430;52.924;-2.388;2022-08-30T12:11:55;100266.13;;;22.20;39.64
43804;BME280;29430;52.924;-2.388;2022-08-30T12:16:50;100273.13;;;22.67;39.34
43804;BME280;29430;52.924;-2.388;2022-08-30T12:22:03;100267.19;;;22.89;38.53
43804;BME280;29430;52.924;-2.388;2022-08-30T12:26:58;100259.94;;;22.99;38.46
43804;BME280;29430;52.924;-2.388;2022-08-30T12:31:59;100254.59;;;23.07;38.07
43804;BME280;29430;52.924;-2.388;2022-08-30T12:36:57;100254.34;;;23.09;37.66
43804;BME280;29430;52.924;-2.388;2022-08-30T12:41:49;100250.47;;;23.10;38.35
43804;BME280;29430;52.924;-2.388;2022-08-30T12:46:44;100243.78;;;23.16;38.51
43804;BME280;29430;52.924;-2.388;2022-08-30T12:51:39;100264.19;;;23.26;38.86
43804;BME280;29430;52.924;-2.388;2022-08-30T12:56:59;100252.63;;;23.18;38.97
43804;BME280;29430;52.924;-2.388;2022-08-30T13:07:11;100257.75;;;22.91;39.18
43804;BME280;29430;52.924;-2.388;2022-08-30T13:12:25;100268.81;;;22.46;39.94
43804;BME280;29430;52.924;-2.388;2022-08-30T13:22:32;100251.38;;;22.50;39.80
43804;BME280;29430;52.924;-2.388;2022-08-30T13:27:26;100242.50;;;22.53;40.22
43804;BME280;29430;52.924;-2.388;2022-08-30T13:32:18;100249.66;;;22.60;40.59
43804;BME280;29430;52.924;-2.388;2022-08-30T13:37:14;100241.13;;;22.56;39.60
43804;BME280;29430;52.924;-2.388;2022-08-30T13:42:28;100248.44;;;22.26;40.22
43804;BME280;29430;52.924;-2.388;2022-08-30T13:47:23;100240.22;;;22.00;40.64
43804;BME280;29430;52.924;-2.388;2022-08-30T13:52:23;100236.91;;;22.04;40.49
43804;BME280;29430;52.924;-2.388;2022-08-30T13:57:17;100236.06;;;22.08;40.79
43804;BME280;29430;52.924;-2.388;2022-08-30T14:02:29;100221.59;;;22.27;40.54
43804;BME280;29430;52.924;-2.388;2022-08-30T14:07:20;100229.38;;;22.20;41.00
43804;BME280;29430;52.924;-2.388;2022-08-30T14:12:12;100227.50;;;22.05;41.02
43804;BME280;29430;52.924;-2.388;2022-08-30T14:17:04;100228.38;;;21.90;41.16
43804;BME280;29430;52.924;-2.388;2022-08-30T14:21:56;100238.38;;;21.65;41.95
43804;BME280;29430;52.924;-2.388;2022-08-30T14:26:49;100228.47;;;21.59;41.76
43804;BME280;29430;52.924;-2.388;2022-08-30T14:31:42;100212.97;;;21.68;42.36
43804;BME280;29430;52.924;-2.388;2022-08-30T14:36:37;100212.38;;;21.87;41.47
43804;BME280;29430;52.924;-2.388;2022-08-30T14:41:30;100203.50;;;22.00;41.49
43804;BME280;29430;52.924;-2.388;2022-08-30T14:46:22;100204.00;;;22.12;41.67
43804;BME280;29430;52.924;-2.388;2022-08-30T14:51:19;100204.59;;;21.99;41.92
43804;BME280;29430;52.924;-2.388;2022-08-30T14:56:13;100194.19;;;21.75;41.99
43804;BME280;29430;52.924;-2.388;2022-08-30T15:01:07;100190.63;;;21.64;42.46
43804;BME280;29430;52.924;-2.388;2022-08-30T15:05:59;100193.66;;;21.63;42.91
43804;BME280;29430;52.924;-2.388;2022-08-30T15:10:51;100196.97;;;21.65;43.11
43804;BME280;29430;52.924;-2.388;2022-08-30T15:15:43;100198.34;;;21.62;42.67
43804;BME280;29430;52.924;-2.388;2022-08-30T15:20:35;100179.34;;;21.51;43.10
43804;BME280;29430;52.924;-2.388;2022-08-30T15:25:27;100176.56;;;21.40;42.80
43804;BME280;29430;52.924;-2.388;2022-08-30T15:30:18;100176.31;;;21.37;43.63
43804;BME280;29430;52.924;-2.388;2022-08-30T15:35:11;100166.38;;;21.36;43.45
43804;BME280;29430;52.924;-2.388;2022-08-30T15:40:04;100160.00;;;21.30;43.75
43804;BME280;29430;52.924;-2.388;2022-08-30T15:44:56;100158.94;;;21.26;43.56
43804;BME280;29430;52.924;-2.388;2022-08-30T15:49:57;100166.13;;;21.17;43.95
43804;BME280;29430;52.924;-2.388;2022-08-30T15:54:49;100167.22;;;21.10;44.39
43804;BME280;29430;52.924;-2.388;2022-08-30T15:59:41;100166.69;;;21.14;44.67
43804;BME280;29430;52.924;-2.388;2022-08-30T16:04:33;100167.22;;;21.16;44.69
43804;BME280;29430;52.924;-2.388;2022-08-30T16:09:26;100165.31;;;21.06;44.88
43804;BME280;29430;52.924;-2.388;2022-08-30T16:14:22;100155.09;;;20.91;45.17
43804;BME280;29430;52.924;-2.388;2022-08-30T16:19:15;100153.44;;;20.80;45.57
43804;BME280;29430;52.924;-2.388;2022-08-30T16:24:08;100159.50;;;20.82;45.17
43804;BME280;29430;52.924;-2.388;2022-08-30T16:29:05;100157.84;;;20.75;45.35
43804;BME280;29430;52.924;-2.388;2022-08-30T16:34:00;100154.00;;;20.71;45.67
43804;BME280;29430;52.924;-2.388;2022-08-30T16:38:55;100154.00;;;20.71;45.78
43804;BME280;29430;52.924;-2.388;2022-08-30T16:43:50;100157.03;;;20.70;45.86
43804;BME280;29430;52.924;-2.388;2022-08-30T16:48:44;100154.78;;;20.62;46.00
43804;BME280;29430;52.924;-2.388;2022-08-30T16:53:37;100160.28;;;20.51;46.32
43804;BME280;29430;52.924;-2.388;2022-08-30T16:58:29;100159.44;;;20.46;46.51
43804;BME280;29430;52.924;-2.388;2022-08-30T17:03:21;100153.38;;;20.44;46.68
43804;BME280;29430;52.924;-2.388;2022-08-30T17:08:14;100155.84;;;20.40;46.43
43804;BME280;29430;52.924;-2.388;2022-08-30T17:13:06;100152.53;;;20.38;46.79
43804;BME280;29430;52.924;-2.388;2022-08-30T17:18:01;100149.25;;;20.36;46.91
43804;BME280;29430;52.924;-2.388;2022-08-30T17:22:53;100156.38;;;20.27;46.66
43804;BME280;29430;52.924;-2.388;2022-08-30T17:27:45;100160.50;;;20.19;46.45
43804;BME280;29430;52.924;-2.388;2022-08-30T17:32:36;100157.16;;;20.12;47.00
43804;BME280;29430;52.924;-2.388;2022-08-30T17:37:30;100159.63;;;20.08;47.38
43804;BME280;29430;52.924;-2.388;2022-08-30T17:42:22;100163.75;;;20.06;47.44
43804;BME280;29430;52.924;-2.388;2022-08-30T17:47:20;100163.19;;;20.03;47.66
43804;BME280;29430;52.924;-2.388;2022-08-30T17:52:14;100168.69;;;20.03;47.50
43804;BME280;29430;52.924;-2.388;2022-08-30T17:57:06;100164.81;;;19.99;47.79
43804;BME280;29430;52.924;-2.388;2022-08-30T18:02:02;100164.78;;;19.89;47.53
43804;BME280;29430;52.924;-2.388;2022-08-30T18:06:56;100174.09;;;19.78;47.92
43804;BME280;29430;52.924;-2.388;2022-08-30T18:11:48;100179.50;;;19.67;48.15
43804;BME280;29430;52.924;-2.388;2022-08-30T18:16:40;100187.97;;;19.56;48.42
43804;BME280;29430;52.924;-2.388;2022-08-30T18:21:43;100193.94;;;19.42;48.90
43804;BME280;29430;52.924;-2.388;2022-08-30T18:26:35;100208.13;;;19.29;49.39
43804;BME280;29430;52.924;-2.388;2022-08-30T18:31:33;100213.84;;;19.17;49.84
43804;BME280;29430;52.924;-2.388;2022-08-30T18:36:26;100218.09;;;19.03;50.44
43804;BME280;29430;52.924;-2.388;2022-08-30T18:41:18;100219.06;;;18.86;50.85
43804;BME280;29430;52.924;-2.388;2022-08-30T18:46:12;100227.44;;;18.74;51.45
43804;BME280;29430;52.924;-2.388;2022-08-30T18:51:17;100234.19;;;18.61;51.80
43804;BME280;29430;52.924;-2.388;2022-08-30T18:56:09;100230.25;;;18.52;52.17
43804;BME280;29430;52.924;-2.388;2022-08-30T19:01:01;100234.53;;;18.43;52.38
43804;BME280;29430;52.924;-2.388;2022-08-30T19:05:53;100239.91;;;18.33;52.78
43804;BME280;29430;52.924;-2.388;2022-08-30T19:10:45;100241.69;;;18.22;53.42
43804;BME280;29430;52.924;-2.388;2022-08-30T19:15:38;100248.41;;;18.09;53.74
43804;BME280;29430;52.924;-2.388;2022-08-30T19:20:30;100249.59;;;17.96;54.28
43804;BME280;29430;52.924;-2.388;2022-08-30T19:25:22;100247.25;;;17.88;54.20
43804;BME280;29430;52.924;-2.388;2022-08-30T19:30:22;100258.94;;;17.78;54.88
43804;BME280;29430;52.924;-2.388;2022-08-30T19:35:20;100261.44;;;17.63;55.42
43804;BME280;29430;52.924;-2.388;2022-08-30T19:40:14;100271.19;;;17.53;55.99
43804;BME280;29430;52.924;-2.388;2022-08-30T19:45:07;100275.41;;;17.44;56.25
43804;BME280;29430;52.924;-2.388;2022-08-30T19:49:59;100271.69;;;17.33;56.78
43804;BME280;29430;52.924;-2.388;2022-08-30T19:54:57;100278.66;;;17.24;57.03
43804;BME280;29430;52.924;-2.388;2022-08-30T19:59:49;100279.53;;;17.13;57.26
43804;BME280;29430;52.924;-2.388;2022-08-30T20:04:40;100284.38;;;17.06;57.83
43804;BME280;29430;52.924;-2.388;2022-08-30T20:09:32;100283.09;;;16.96;57.95
43804;BME280;29430;52.924;-2.388;2022-08-30T20:14:24;100292.31;;;16.90;58.49
43804;BME280;29430;52.924;-2.388;2022-08-30T20:19:16;100290.53;;;16.84;58.72
43804;BME280;29430;52.924;-2.388;2022-08-30T20:24:10;100296.38;;;16.76;58.93
43804;BME280;29430;52.924;-2.388;2022-08-30T20:29:03;100300.69;;;16.72;59.42
43804;BME280;29430;52.924;-2.388;2022-08-30T20:33:54;100305.00;;;16.68;59.44
43804;BME280;29430;52.924;-2.388;2022-08-30T20:38:46;100292.50;;;16.60;59.52
43804;BME280;29430;52.924;-2.388;2022-08-30T20:43:38;100293.56;;;16.59;59.62
43804;BME280;29430;52.924;-2.388;2022-08-30T20:48:29;100298.72;;;16.55;60.03
43804;BME280;29430;52.924;-2.388;2022-08-30T20:53:23;100289.31;;;16.51;60.36
43804;BME280;29430;52.924;-2.388;2022-08-30T20:58:14;100299.69;;;16.49;60.43
43804;BME280;29430;52.924;-2.388;2022-08-30T21:03:06;100291.97;;;16.46;60.54
43804;BME280;29430;52.924;-2.388;2022-08-30T21:08:16;100297.09;;;16.42;60.74
43804;BME280;29430;52.924;-2.388;2022-08-30T21:13:09;100305.78;;;16.39;61.19
43804;BME280;29430;52.924;-2.388;2022-08-30T21:18:01;100309.84;;;16.37;61.39
43804;BME280;29430;52.924;-2.388;2022-08-30T21:22:53;100301.88;;;16.35;61.69
43804;BME280;29430;52.924;-2.388;2022-08-30T21:27:46;100309.03;;;16.36;61.28
43804;BME280;29430;52.924;-2.388;2022-08-30T21:32:38;100314.97;;;16.33;61.79
43804;BME280;29430;52.924;-2.388;2022-08-30T21:37:30;100316.53;;;16.29;62.08
43804;BME280;29430;52.924;-2.388;2022-08-30T21:42:26;100330.22;;;16.29;61.82
43804;BME280;29430;52.924;-2.388;2022-08-30T21:47:18;100326.88;;;16.27;61.90
43804;BME280;29430;52.924;-2.388;2022-08-30T21:52:14;100319.97;;;16.24;62.13
43804;BME280;29430;52.924;-2.388;2022-08-30T21:57:06;100336.63;;;16.23;62.26
43804;BME280;29430;52.924;-2.388;2022-08-30T22:01:58;100347.00;;;16.21;62.01
43804;BME280;29430;52.924;-2.388;2022-08-30T22:06:50;100340.56;;;16.15;62.34
43804;BME280;29430;52.924;-2.388;2022-08-30T22:11:43;100336.06;;;16.09;62.88
43804;BME280;29430;52.924;-2.388;2022-08-30T22:16:35;100347.50;;;16.06;62.94
43804;BME280;29430;52.924;-2.388;2022-08-30T22:21:29;100350.94;;;16.01;62.92
43804;BME280;29430;52.924;-2.388;2022-08-30T22:26:22;100345.94;;;15.98;63.19
43804;BME280;29430;52.924;-2.388;2022-08-30T22:31:15;100349.63;;;15.92;63.34
43804;BME280;29430;52.924;-2.388;2022-08-30T22:36:13;100345.34;;;15.84;64.14
43804;BME280;29430;52.924;-2.388;2022-08-30T22:41:09;100353.19;;;15.81;63.89
43804;BME280;29430;52.924;-2.388;2022-08-30T22:46:02;100352.19;;;15.75;64.45
43804;BME280;29430;52.924;-2.388;2022-08-30T22:50:54;100355.06;;;15.68;64.30
43804;BME280;29430;52.924;-2.388;2022-08-30T22:55:45;100364.94;;;15.69;64.61
43804;BME280;29430;52.924;-2.388;2022-08-30T23:00:39;100354.47;;;15.66;65.18
43804;BME280;29430;52.924;-2.388;2022-08-30T23:05:45;100364.56;;;15.66;64.99
43804;BME280;29430;52.924;-2.388;2022-08-30T23:10:37;100365.88;;;15.63;65.15
43804;BME280;29430;52.924;-2.388;2022-08-30T23:15:28;100364.44;;;15.61;65.57
43804;BME280;29430;52.924;-2.388;2022-08-30T23:20:22;100364.09;;;15.57;65.99
43804;BME280;29430;52.924;-2.388;2022-08-30T23:25:14;100365.16;;;15.56;66.14
43804;BME280;29430;52.924;-2.388;2022-08-30T23:30:32;100367.88;;;15.56;66.44
43804;BME280;29430;52.924;-2.388;2022-08-30T23:35:42;100378.69;;;15.51;67.02
43804;BME280;29430;52.924;-2.388;2022-08-30T23:40:52;100368.81;;;15.50;67.51
43804;BME280;29430;52.924;-2.388;2022-08-30T23:46:02;100370.34;;;15.46;67.80
43804;BME280;29430;52.924;-2.388;2022-08-30T23:51:12;100362.59;;;15.43;67.93
43804;BME280;29430;52.924;-2.388;2022-08-30T23:56:22;100362.84;;;15.41;68.58
